Earby, United Kingdom
Current Conditions -  °F | °C
As of 10:20 PM on Tuesday 21 Oct 2014 (Local Time) from EGNM Reporting Station
Clear Clear  
Wind Chill: 32°   Ceiling: Unl
Heat Index: 41°   Visibility: 6mi
Dew Point: 32°   Wind: 18mph
Humidity: 70%   Direction: 290°WNW
Pressure: 29.97"   Gusts: NA
Location:  53.92°N, 2.14°W
Report Text: EGNM 212120Z 29016KT CAVOK 05/00 Q1015
Loading
Personal Weather Stations






























Interactive Weather Map New forecast layout! Learn more

10-Day Weather Forecast

Advertisements
Track Severe Weather on mobile